createdAt,value
2022-11-29T00:01:39.728Z,91.03
2022-11-29T00:04:07.921Z,98.28
2022-11-29T00:06:36.215Z,84.15
2022-11-29T00:09:09.465Z,80.25
2022-11-29T00:11:59.866Z,82.82
2022-11-29T00:14:28.983Z,77.18
2022-11-29T00:17:02.037Z,83.88
2022-11-29T00:19:31.127Z,84.60
2022-11-29T00:21:58.237Z,79.20
2022-11-29T00:24:25.368Z,72.35
2022-11-29T00:26:52.353Z,77.55
2022-11-29T00:29:19.400Z,78.57
2022-11-29T00:31:46.486Z,74.15
2022-11-29T00:34:13.673Z,80.18
2022-11-29T00:36:40.992Z,83.22
2022-11-29T00:39:11.712Z,74.25
2022-11-29T00:41:40.179Z,83.85
2022-11-29T00:44:07.655Z,74.45
2022-11-29T00:46:34.778Z,77.53
2022-11-29T00:49:02.001Z,71.43
2022-11-29T00:51:29.046Z,72.00
2022-11-29T00:53:56.251Z,76.03
2022-11-29T00:56:23.412Z,77.10
2022-11-29T00:58:50.541Z,75.78
2022-11-29T01:01:17.856Z,73.22
2022-11-29T01:03:45.033Z,73.10
2022-11-29T01:06:16.643Z,73.10
2022-11-29T01:08:48.196Z,61.85
2022-11-29T01:11:21.667Z,82.88
2022-11-29T01:13:59.009Z,81.97
2022-11-29T01:16:28.143Z,82.88
2022-11-29T01:18:55.518Z,80.18
2022-11-29T01:21:24.822Z,79.13
2022-11-29T01:23:53.320Z,83.68
2022-11-29T01:26:30.139Z,74.80
2022-11-29T01:28:59.005Z,80.60
2022-11-29T01:31:35.831Z,70.07
2022-11-29T01:34:05.225Z,66.07
2022-11-29T01:36:32.484Z,60.42
2022-11-29T01:39:01.678Z,79.75
2022-11-29T01:41:34.502Z,71.88
2022-11-29T01:44:26.367Z,67.40
2022-11-29T01:46:55.303Z,76.43
2022-11-29T01:49:30.353Z,77.35
2022-11-29T01:52:09.754Z,64.18
2022-11-29T01:54:43.736Z,68.40
2022-11-29T01:57:11.504Z,80.95
2022-11-29T01:59:46.425Z,63.50
2022-11-29T02:02:20.507Z,70.18
2022-11-29T02:04:49.575Z,103.68
2022-11-29T02:07:17.223Z,101.05
2022-11-29T02:09:44.368Z,90.03
2022-11-29T02:12:39.268Z,99.18
2022-11-29T02:15:27.343Z,75.95
2022-11-29T02:18:11.104Z,80.70
2022-11-29T02:21:09.900Z,86.88
2022-11-29T02:24:01.591Z,69.82
2022-11-29T02:27:14.470Z,80.32
2022-11-29T02:30:41.236Z,93.50
2022-11-29T02:33:38.714Z,102.18
2022-11-29T02:36:30.544Z,75.65
2022-11-29T02:39:14.297Z,79.88
2022-11-29T02:42:22.774Z,82.05
2022-11-29T02:45:14.497Z,79.55
2022-11-29T02:48:21.688Z,90.80
2022-11-29T02:51:46.223Z,97.53
2022-11-29T02:54:27.817Z,88.10
2022-11-29T02:57:38.796Z,101.35
2022-11-29T03:00:13.686Z,96.05
2022-11-29T03:02:57.440Z,91.97
2022-11-29T03:05:49.043Z,83.05
2022-11-29T03:08:52.543Z,86.68
2022-11-29T03:11:56.919Z,86.72
2022-11-29T03:14:57.790Z,83.70
2022-11-29T03:18:02.113Z,90.15
2022-11-29T03:20:55.521Z,97.47
2022-11-29T03:23:39.119Z,97.90
2022-11-29T03:26:14.573Z,88.07
2022-11-29T03:29:16.492Z,106.93
2022-11-29T03:32:04.821Z,98.85
2022-11-29T03:35:03.726Z,101.88
2022-11-29T03:38:14.841Z,88.53
2022-11-29T03:41:23.389Z,89.95
2022-11-29T03:44:08.081Z,91.50
2022-11-29T03:46:50.111Z,92.53
2022-11-29T03:49:34.681Z,94.88
2022-11-29T03:52:42.643Z,110.68
2022-11-29T03:55:22.000Z,103.10
2022-11-29T03:58:22.273Z,110.22
2022-11-29T04:01:01.208Z,106.93
2022-11-29T04:04:05.325Z,102.20
2022-11-29T04:07:01.008Z,87.20
2022-11-29T04:09:50.394Z,99.63
2022-11-29T04:12:41.982Z,90.57
2022-11-29T04:15:42.420Z,95.15
2022-11-29T04:18:36.776Z,91.95
2022-11-29T04:21:33.597Z,96.70
2022-11-29T04:24:56.635Z,90.70
2022-11-29T04:27:49.324Z,97.22
2022-11-29T04:30:25.734Z,96.40
2022-11-29T04:33:29.527Z,103.82
2022-11-29T04:36:32.528Z,97.00
2022-11-29T04:39:25.756Z,113.82
2022-11-29T04:42:34.478Z,96.82
2022-11-29T04:46:03.236Z,100.65
2022-11-29T04:49:19.700Z,98.78
2022-11-29T04:52:16.861Z,99.68
2022-11-29T04:55:35.298Z,97.60
2022-11-29T04:58:22.663Z,93.13
2022-11-29T05:01:33.176Z,108.97
2022-11-29T05:04:20.086Z,94.53
2022-11-29T05:07:11.756Z,109.40
2022-11-29T05:10:20.278Z,106.22
2022-11-29T05:13:24.526Z,103.65
2022-11-29T05:16:38.751Z,114.97
2022-11-29T05:19:46.748Z,145.65
2022-11-29T05:22:39.510Z,115.57
2022-11-29T05:25:55.094Z,119.38
2022-11-29T05:28:57.652Z,164.52
2022-11-29T05:31:55.174Z,182.23
2022-11-29T05:34:50.621Z,131.27
2022-11-29T05:37:44.710Z,108.70
2022-11-29T05:40:14.901Z,105.20
2022-11-29T05:43:21.354Z,117.18
2022-11-29T05:46:07.175Z,253.35
2022-11-29T05:48:51.023Z,124.43
2022-11-29T05:51:33.807Z,134.95
2022-11-29T05:54:19.578Z,107.82
2022-11-29T05:57:14.543Z,86.05
2022-11-29T05:59:49.259Z,93.35
2022-11-29T06:03:14.489Z,178.27
2022-11-29T06:05:56.676Z,97.17
2022-11-29T06:09:05.725Z,117.60
2022-11-29T06:11:58.809Z,268.83
2022-11-29T06:15:17.709Z,173.43
2022-11-29T06:18:23.597Z,188.27
2022-11-29T06:21:11.215Z,188.30
2022-11-29T06:23:59.156Z,84.13
2022-11-29T06:26:55.447Z,108.18
2022-11-29T06:29:51.760Z,121.50
2022-11-29T06:32:40.232Z,88.80
2022-11-29T06:35:35.008Z,140.73
2022-11-29T06:38:19.476Z,170.75
2022-11-29T06:40:50.587Z,99.95
2022-11-29T06:43:20.484Z,131.23
2022-11-29T06:45:57.478Z,100.90
2022-11-29T06:48:29.014Z,93.70
2022-11-29T06:51:44.201Z,90.93
2022-11-29T06:54:25.220Z,93.70
2022-11-29T06:57:16.352Z,85.22
2022-11-29T07:00:06.569Z,85.45
2022-11-29T07:03:18.741Z,94.82
2022-11-29T07:05:46.782Z,88.68
2022-11-29T07:08:24.095Z,90.53
2022-11-29T07:10:55.521Z,101.95
2022-11-29T07:13:23.242Z,97.35
2022-11-29T07:15:56.366Z,88.75
2022-11-29T07:18:39.049Z,87.15
2022-11-29T07:21:59.125Z,146.98
2022-11-29T07:25:00.348Z,112.78
2022-11-29T07:27:45.406Z,115.53
2022-11-29T07:30:50.243Z,103.38
2022-11-29T07:33:49.827Z,87.82
2022-11-29T07:36:55.041Z,92.00
2022-11-29T07:39:48.446Z,94.25
2022-11-29T07:42:40.331Z,101.32
2022-11-29T07:45:20.936Z,84.05
2022-11-29T07:47:48.781Z,74.80
2022-11-29T07:50:17.025Z,62.17
2022-11-29T07:52:44.264Z,60.42
2022-11-29T07:55:18.924Z,55.80
2022-11-29T07:57:47.570Z,60.08
2022-11-29T08:00:15.953Z,69.85
2022-11-29T08:02:43.045Z,69.43
2022-11-29T08:05:11.463Z,85.57
2022-11-29T08:07:41.333Z,84.20
2022-11-29T08:10:16.141Z,70.38
2022-11-29T08:12:47.413Z,75.05
2022-11-29T08:15:15.135Z,91.10
2022-11-29T08:17:42.486Z,82.43
2022-11-29T08:20:12.219Z,97.47
2022-11-29T08:22:39.697Z,91.95
2022-11-29T08:25:08.634Z,103.28
2022-11-29T08:27:37.559Z,85.13
2022-11-29T08:30:06.984Z,90.45
2022-11-29T08:32:34.783Z,82.95
2022-11-29T08:35:01.943Z,92.93
2022-11-29T08:37:29.153Z,95.88
2022-11-29T08:39:58.247Z,76.07
2022-11-29T08:42:25.380Z,70.03
2022-11-29T08:44:52.435Z,91.38
2022-11-29T08:47:37.396Z,90.03
2022-11-29T08:50:16.935Z,74.55
2022-11-29T08:53:06.550Z,79.53
2022-11-29T08:55:39.942Z,92.57
2022-11-29T08:58:12.716Z,77.75
2022-11-29T09:00:41.263Z,78.05
2022-11-29T09:03:27.354Z,103.40
2022-11-29T09:05:54.482Z,81.97
2022-11-29T09:08:21.589Z,59.42
2022-11-29T09:10:49.250Z,67.28
2022-11-29T09:13:17.533Z,56.33
2022-11-29T09:15:44.602Z,57.88
2022-11-29T09:18:11.727Z,61.78
2022-11-29T09:20:46.346Z,67.32
2022-11-29T09:23:13.433Z,70.78
2022-11-29T09:25:47.186Z,75.93
2022-11-29T09:28:14.191Z,66.43
2022-11-29T09:30:41.234Z,60.00
2022-11-29T09:33:08.315Z,63.33
2022-11-29T09:35:35.318Z,50.53
2022-11-29T09:38:02.390Z,57.53
2022-11-29T09:40:45.922Z,57.30
2022-11-29T09:43:43.000Z,60.80
2022-11-29T09:46:24.071Z,55.65
2022-11-29T09:49:42.347Z,53.88
2022-11-29T09:52:46.291Z,49.20
2022-11-29T09:55:50.827Z,53.38
2022-11-29T09:58:26.963Z,60.35
2022-11-29T10:01:08.465Z,48.60
2022-11-29T10:03:45.232Z,53.63
2022-11-29T10:06:40.846Z,73.05
2022-11-29T10:09:23.253Z,49.00
2022-11-29T10:12:16.951Z,49.00
2022-11-29T10:15:17.040Z,43.97
2022-11-29T10:17:58.999Z,39.63
2022-11-29T10:20:37.837Z,44.97
2022-11-29T10:23:18.066Z,42.33
2022-11-29T10:25:51.977Z,38.78
2022-11-29T10:28:27.582Z,35.97
2022-11-29T10:30:58.923Z,31.33
2022-11-29T10:33:31.090Z,37.33
2022-11-29T10:36:15.949Z,32.38
2022-11-29T10:41:20.675Z,37.90
2022-11-29T10:43:50.461Z,28.23
2022-11-29T10:46:32.293Z,26.75
2022-11-29T10:49:04.242Z,27.90
2022-11-29T10:51:33.731Z,28.52
2022-11-29T10:54:28.868Z,35.13
2022-11-29T10:59:31.007Z,42.42
2022-11-29T11:01:58.720Z,43.63
2022-11-29T11:04:44.848Z,40.20
2022-11-29T11:07:24.062Z,35.08
2022-11-29T11:09:56.621Z,46.10
2022-11-29T11:12:31.362Z,31.77
2022-11-29T11:15:24.083Z,83.22
2022-11-29T11:18:06.929Z,62.67
2022-11-29T11:20:42.259Z,44.00
2022-11-29T11:23:54.638Z,41.17
2022-11-29T11:26:22.976Z,37.63
2022-11-29T11:29:01.651Z,36.60
2022-11-29T11:31:38.034Z,36.45
2022-11-29T11:34:36.570Z,28.45
2022-11-29T11:37:16.204Z,41.22
2022-11-29T11:39:49.014Z,42.55
2022-11-29T11:42:37.893Z,39.17
2022-11-29T11:45:10.938Z,38.25
2022-11-29T11:47:52.267Z,29.83
2022-11-29T11:50:29.330Z,38.45
2022-11-29T11:53:02.421Z,34.67
2022-11-29T11:55:43.782Z,37.55
2022-11-29T11:58:13.819Z,34.33
2022-11-29T12:03:54.668Z,28.83
2022-11-29T12:06:46.302Z,32.85
2022-11-29T12:10:00.648Z,31.75
2022-11-29T12:12:39.156Z,38.85
2022-11-29T12:15:38.223Z,32.92
2022-11-29T12:18:28.244Z,35.38
2022-11-29T12:21:10.034Z,35.75
2022-11-29T12:23:57.977Z,34.42
2022-11-29T12:26:57.350Z,36.97
2022-11-29T12:29:31.529Z,42.72
2022-11-29T12:32:14.649Z,37.90
2022-11-29T12:35:18.932Z,40.38
2022-11-29T12:38:20.410Z,38.67
2022-11-29T12:41:24.041Z,37.03
2022-11-29T12:44:18.776Z,45.47
2022-11-29T12:47:34.500Z,42.15
2022-11-29T12:50:14.278Z,41.95
2022-11-29T12:52:55.486Z,46.55
2022-11-29T12:55:45.008Z,41.17
2022-11-29T12:58:33.116Z,45.75
2022-11-29T13:01:15.502Z,43.40
2022-11-29T13:04:38.025Z,45.08
2022-11-29T13:07:45.967Z,51.53
2022-11-29T13:10:27.095Z,48.13
2022-11-29T13:13:04.708Z,45.22
2022-11-29T13:15:49.932Z,48.80
2022-11-29T13:18:52.800Z,44.88
2022-11-29T13:21:53.573Z,44.47
2022-11-29T13:24:46.792Z,44.25
2022-11-29T13:27:40.467Z,50.28
2022-11-29T13:30:13.259Z,47.47
2022-11-29T13:32:53.630Z,47.72
2022-11-29T13:35:30.809Z,54.70
2022-11-29T13:38:08.048Z,44.08
2022-11-29T13:41:16.828Z,48.33
2022-11-29T13:44:14.906Z,49.63
2022-11-29T13:47:09.832Z,48.92
2022-11-29T13:49:58.229Z,46.17
2022-11-29T13:52:39.671Z,44.92
2022-11-29T13:55:12.548Z,43.95
2022-11-29T13:58:16.710Z,45.13
2022-11-29T14:03:24.334Z,55.83
2022-11-29T14:06:32.314Z,40.35
2022-11-29T14:09:35.961Z,50.05
2022-11-29T14:12:24.867Z,49.15
2022-11-29T14:15:03.351Z,45.03
2022-11-29T14:17:50.717Z,50.90
2022-11-29T14:20:23.810Z,45.70
2022-11-29T14:23:05.877Z,51.10
2022-11-29T14:25:51.108Z,45.53
2022-11-29T14:28:21.131Z,48.45
2022-11-29T14:30:54.639Z,42.63
2022-11-29T14:34:08.038Z,49.80
2022-11-29T14:37:18.157Z,48.28
2022-11-29T14:39:54.831Z,45.03
2022-11-29T14:42:25.697Z,51.95
2022-11-29T14:45:01.358Z,47.83
2022-11-29T14:47:38.827Z,41.88
2022-11-29T14:50:10.409Z,40.80
2022-11-29T14:52:51.903Z,52.80
2022-11-29T14:55:19.842Z,49.60
2022-11-29T14:57:54.658Z,44.72
2022-11-29T15:00:25.006Z,42.72
2022-11-29T15:03:00.718Z,46.05
2022-11-29T15:05:38.618Z,39.35
2022-11-29T15:08:34.935Z,40.60
2022-11-29T15:11:09.761Z,41.58
2022-11-29T15:13:55.160Z,43.78
2022-11-29T15:16:44.604Z,44.90
2022-11-29T15:19:51.289Z,41.90
2022-11-29T15:22:26.612Z,42.40
2022-11-29T15:25:10.983Z,46.03
2022-11-29T15:27:54.209Z,44.95
2022-11-29T15:30:42.489Z,48.15
2022-11-29T15:33:23.872Z,44.80
2022-11-29T15:35:55.238Z,50.60
2022-11-29T15:38:24.353Z,51.17
2022-11-29T15:40:55.297Z,54.03
2022-11-29T15:43:35.625Z,45.67
2022-11-29T15:46:03.861Z,46.13
2022-11-29T15:48:32.770Z,46.55
2022-11-29T15:51:03.195Z,51.35
2022-11-29T15:53:43.678Z,48.08
2022-11-29T15:56:24.931Z,46.95
2022-11-29T15:59:00.775Z,48.35
2022-11-29T16:01:27.808Z,50.60
2022-11-29T16:03:58.595Z,52.63
2022-11-29T16:06:40.702Z,53.17
2022-11-29T16:09:22.780Z,56.67
2022-11-29T16:11:50.015Z,53.42
2022-11-29T16:14:25.044Z,49.38
2022-11-29T16:16:56.025Z,52.63
2022-11-29T16:19:33.533Z,53.17
2022-11-29T16:22:37.641Z,55.10
2022-11-29T16:25:14.455Z,58.90
2022-11-29T16:27:42.524Z,53.40
2022-11-29T16:30:26.086Z,56.85
2022-11-29T16:33:00.454Z,60.00
2022-11-29T16:35:31.084Z,58.47
2022-11-29T16:37:58.428Z,55.38
2022-11-29T16:40:34.522Z,65.70
2022-11-29T16:43:53.689Z,57.33
2022-11-29T16:46:21.921Z,63.85
2022-11-29T16:48:50.705Z,71.75
2022-11-29T16:51:38.750Z,82.55
2022-11-29T16:54:34.366Z,68.55
2022-11-29T16:57:06.847Z,62.92
2022-11-29T16:59:35.362Z,70.22
2022-11-29T17:02:03.015Z,67.10
2022-11-29T17:04:30.019Z,62.42
2022-11-29T17:06:57.590Z,57.65
2022-11-29T17:09:31.209Z,65.75
2022-11-29T17:12:01.946Z,71.03
2022-11-29T17:14:29.861Z,72.07
2022-11-29T17:16:59.832Z,60.38
2022-11-29T17:19:29.371Z,68.82
2022-11-29T17:21:56.810Z,71.28
2022-11-29T17:24:24.770Z,72.88
2022-11-29T17:26:51.980Z,80.25
2022-11-29T17:29:19.118Z,81.07
2022-11-29T17:31:47.330Z,77.97
2022-11-29T17:34:14.507Z,65.40
2022-11-29T17:36:42.091Z,79.65
2022-11-29T17:39:09.367Z,78.47
2022-11-29T17:41:36.730Z,83.40
2022-11-29T17:44:04.529Z,79.32
2022-11-29T17:46:36.388Z,83.60
2022-11-29T17:49:08.037Z,80.60
2022-11-29T17:51:54.282Z,76.22
2022-11-29T17:54:22.500Z,69.63
2022-11-29T17:56:50.377Z,76.60
2022-11-29T17:59:17.613Z,67.88
2022-11-29T18:01:47.389Z,68.35
2022-11-29T18:04:15.034Z,69.13
2022-11-29T18:06:42.338Z,70.18
2022-11-29T18:09:11.065Z,79.95
2022-11-29T18:11:50.280Z,74.88
2022-11-29T18:14:23.412Z,63.25
2022-11-29T18:16:51.667Z,67.68
2022-11-29T18:19:22.727Z,73.80
2022-11-29T18:21:51.074Z,66.28
2022-11-29T18:24:19.332Z,65.03
2022-11-29T18:26:47.141Z,67.68
2022-11-29T18:29:14.715Z,68.75
2022-11-29T18:31:44.911Z,59.42
2022-11-29T18:34:14.416Z,64.85
2022-11-29T18:36:46.201Z,64.55
2022-11-29T18:39:20.039Z,64.30
2022-11-29T18:41:50.123Z,65.50
2022-11-29T18:44:21.696Z,62.05
2022-11-29T18:46:49.152Z,61.72
2022-11-29T18:49:18.643Z,65.30
2022-11-29T18:51:47.656Z,66.78
2022-11-29T18:54:17.966Z,70.60
2022-11-29T18:56:45.609Z,61.92
2022-11-29T18:59:17.353Z,60.67
2022-11-29T19:01:48.278Z,69.05
2022-11-29T19:04:20.298Z,68.43
2022-11-29T19:06:48.633Z,65.90
2022-11-29T19:09:23.360Z,55.15
2022-11-29T19:11:50.929Z,63.00
2022-11-29T19:14:19.049Z,66.57
2022-11-29T19:16:49.293Z,72.93
2022-11-29T19:19:18.690Z,66.72
2022-11-29T19:21:45.714Z,68.50
2022-11-29T19:24:15.635Z,71.18
2022-11-29T19:26:46.026Z,65.95
2022-11-29T19:29:14.574Z,69.05
2022-11-29T19:31:45.311Z,71.35
2022-11-29T19:34:12.568Z,67.82
2022-11-29T19:36:43.350Z,70.32
2022-11-29T19:39:14.409Z,80.03
2022-11-29T19:41:45.220Z,73.28
2022-11-29T19:44:12.886Z,70.53
2022-11-29T19:46:45.928Z,77.07
2022-11-29T19:49:13.190Z,82.07
2022-11-29T19:51:41.427Z,81.65
2022-11-29T19:54:10.207Z,76.97
2022-11-29T19:56:38.869Z,69.57
2022-11-29T19:59:07.767Z,88.05
2022-11-29T20:01:43.658Z,89.20
2022-11-29T20:04:13.608Z,88.88
2022-11-29T20:06:41.566Z,93.60
2022-11-29T20:09:10.068Z,96.45
2022-11-29T20:11:38.604Z,84.93
2022-11-29T20:14:08.098Z,97.18
2022-11-29T20:16:37.809Z,84.38
2022-11-29T20:19:10.953Z,80.88
2022-11-29T20:21:48.895Z,83.85
2022-11-29T20:24:17.718Z,89.88
2022-11-29T20:26:47.690Z,88.50
2022-11-29T20:29:16.618Z,89.63
2022-11-29T20:31:49.931Z,94.50
2022-11-29T20:34:19.885Z,92.68
2022-11-29T20:37:08.713Z,90.05
2022-11-29T20:40:14.853Z,77.32
2022-11-29T20:43:21.339Z,92.25
2022-11-29T20:45:49.675Z,85.75
2022-11-29T20:48:23.041Z,88.00
2022-11-29T20:51:02.362Z,83.70
2022-11-29T20:53:38.982Z,91.30
2022-11-29T20:56:08.751Z,94.53
2022-11-29T20:58:36.975Z,83.60
2022-11-29T21:01:07.661Z,85.22
2022-11-29T21:03:34.990Z,82.85
2022-11-29T21:06:05.772Z,97.28
2022-11-29T21:08:33.857Z,105.13
2022-11-29T21:11:09.942Z,88.57
2022-11-29T21:13:37.544Z,74.35
2022-11-29T21:16:05.289Z,82.30
2022-11-29T21:18:33.596Z,97.70
2022-11-29T21:21:16.978Z,80.95
2022-11-29T21:24:10.144Z,85.47
2022-11-29T21:26:51.882Z,82.13
2022-11-29T21:32:07.701Z,85.43
2022-11-29T21:34:34.867Z,88.95
2022-11-29T21:37:02.128Z,96.82
2022-11-29T21:39:34.071Z,78.72
2022-11-29T21:42:01.430Z,87.32
2022-11-29T21:44:28.381Z,86.50
2022-11-29T21:46:55.478Z,73.13
2022-11-29T21:49:22.540Z,75.93
2022-11-29T21:51:49.687Z,68.13
2022-11-29T21:54:16.736Z,68.13
2022-11-29T21:56:43.787Z,68.32
2022-11-29T21:59:10.757Z,74.75
2022-11-29T22:01:37.828Z,73.63
2022-11-29T22:04:05.031Z,67.72
2022-11-29T22:06:38.257Z,71.35
2022-11-29T22:09:07.654Z,72.72
2022-11-29T22:11:35.444Z,71.85
2022-11-29T22:14:18.344Z,72.32
2022-11-29T22:17:01.034Z,77.20
2022-11-29T22:19:39.470Z,64.40
2022-11-29T22:22:09.072Z,68.20
2022-11-29T22:24:37.967Z,78.85
2022-11-29T22:27:05.041Z,72.95
2022-11-29T22:29:32.115Z,72.85
2022-11-29T22:31:59.604Z,83.78
2022-11-29T22:34:28.200Z,70.82
2022-11-29T22:36:56.293Z,67.25
2022-11-29T22:39:24.070Z,76.32
2022-11-29T22:41:54.783Z,62.38
2022-11-29T22:44:25.089Z,68.50
2022-11-29T22:46:53.200Z,76.53
2022-11-29T22:49:20.480Z,66.38
2022-11-29T22:51:47.808Z,61.85
2022-11-29T22:54:16.372Z,70.95
2022-11-29T22:56:45.231Z,71.40
2022-11-29T22:59:13.141Z,67.55
2022-11-29T23:01:41.969Z,63.22
2022-11-29T23:04:11.501Z,54.15
2022-11-29T23:06:45.306Z,64.15
2022-11-29T23:09:16.419Z,63.90
2022-11-29T23:11:46.367Z,68.68
2022-11-29T23:14:13.911Z,67.10
2022-11-29T23:16:41.487Z,62.75
2022-11-29T23:19:08.793Z,50.97
2022-11-29T23:21:40.460Z,47.42
2022-11-29T23:24:07.981Z,46.85
2022-11-29T23:26:40.516Z,46.08
2022-11-29T23:29:12.375Z,41.70
2022-11-29T23:31:40.361Z,45.47
2022-11-29T23:34:08.315Z,44.45
2022-11-29T23:36:36.413Z,50.38
2022-11-29T23:39:06.551Z,43.75
2022-11-29T23:41:36.438Z,41.25
2022-11-29T23:44:05.883Z,50.65
2022-11-29T23:46:35.172Z,42.45
2022-11-29T23:49:02.486Z,45.75
2022-11-29T23:51:30.024Z,45.30
2022-11-29T23:54:03.964Z,47.25
2022-11-29T23:56:35.222Z,41.17
2022-11-29T23:59:02.614Z,42.47
